Terminal Aerodrome Forecast
Issued by NWS Wichita, KS

Home | Current Version | Previous Version | Text Only | Print | Product List | Glossary On
Versions: 1 2 3 4 5 6 7 8 9 10 11 12 13
662
FTUS43 KICT 192330
TAFICT
TAF
KICT 192330Z 2000/2024 18019G28KT P6SM SCT250
     FM200100 18014KT P6SM SCT250
     FM200300 18012KT P6SM SCT250 WS020/21045KT
     FM200800 17007KT P6SM FEW250
     FM201500 02011KT P6SM FEW250
     FM201800 06012KT P6SM FEW250=

USA.gov is the U.S. government's official web portal to all federal, state and local government web resources and services.